createdAt,value
2019-01-11T00:01:48.855Z,99297.69
2019-01-11T00:04:17.352Z,99296.65
2019-01-11T00:06:45.535Z,99300.17
2019-01-11T00:09:14.203Z,99298.27
2019-01-11T00:11:42.578Z,99298.13
2019-01-11T00:14:11.474Z,99299.80
2019-01-11T00:16:39.753Z,99297.21
2019-01-11T00:19:08.229Z,99299.37
2019-01-11T00:21:36.293Z,99295.89
2019-01-11T00:24:05.334Z,99296.73
2019-01-11T00:26:33.671Z,99306.08
2019-01-11T00:29:01.794Z,99298.66
2019-01-11T00:31:29.898Z,99297.69
2019-01-11T00:33:58.397Z,99294.94
2019-01-11T00:36:26.460Z,99292.80
2019-01-11T00:38:54.571Z,99286.90
2019-01-11T00:41:23.228Z,99279.19
2019-01-11T00:53:32.927Z,99288.34
2019-01-11T00:59:44.739Z,99292.38
2019-01-11T01:02:13.030Z,99292.16
2019-01-11T01:04:41.112Z,99297.59
2019-01-11T01:07:09.316Z,99302.20
2019-01-11T01:09:37.478Z,99299.47
2019-01-11T01:12:05.913Z,99298.74
2019-01-11T01:14:34.518Z,99300.08
2019-01-11T01:17:02.751Z,99303.14
2019-01-11T01:19:30.745Z,99300.99
2019-01-11T01:21:58.887Z,99300.59
2019-01-11T01:24:27.326Z,99295.29
2019-01-11T01:26:55.355Z,99299.77
2019-01-11T01:29:23.578Z,99295.26
2019-01-11T01:31:51.666Z,99295.07
2019-01-11T01:34:20.054Z,99298.67
2019-01-11T01:36:48.704Z,99296.70
2019-01-11T01:39:16.779Z,99293.88
2019-01-11T01:41:45.184Z,99299.77
2019-01-11T01:44:13.197Z,99297.30
2019-01-11T01:46:41.529Z,99301.53
2019-01-11T01:49:09.985Z,99295.66
2019-01-11T01:51:37.982Z,99292.01
2019-01-11T01:54:06.382Z,99296.83
2019-01-11T01:56:34.712Z,99295.28
2019-01-11T01:59:03.090Z,99289.86
2019-01-11T02:01:31.213Z,99296.89
2019-01-11T02:03:59.622Z,99298.64
2019-01-11T02:06:28.622Z,99298.43
2019-01-11T02:08:57.005Z,99301.75
2019-01-11T02:11:25.079Z,99297.52
2019-01-11T02:13:53.113Z,99297.78
2019-01-11T02:16:21.524Z,99300.86
2019-01-11T02:18:49.585Z,99300.81
2019-01-11T02:21:17.763Z,99304.88
2019-01-11T02:23:46.068Z,99300.11
2019-01-11T02:26:14.214Z,99294.70
2019-01-11T02:28:42.364Z,99296.12
2019-01-11T02:31:10.681Z,99298.11
2019-01-11T02:33:38.752Z,99296.73
2019-01-11T02:36:06.991Z,99302.26
2019-01-11T02:38:35.099Z,99301.63
2019-01-11T02:41:03.131Z,99300.27
2019-01-11T02:43:31.288Z,99294.98
2019-01-11T02:45:59.830Z,99300.20
2019-01-11T02:48:28.294Z,99305.88
2019-01-11T02:50:56.755Z,99307.96
2019-01-11T02:53:25.013Z,99305.28
2019-01-11T02:55:53.450Z,99304.06
2019-01-11T02:58:21.621Z,99301.98
2019-01-11T03:00:50.002Z,99300.98
2019-01-11T03:03:18.109Z,99298.86
2019-01-11T03:05:46.320Z,99291.53
2019-01-11T03:08:14.355Z,99297.73
2019-01-11T03:10:42.813Z,99291.53
2019-01-11T03:13:11.026Z,99287.77
2019-01-11T03:15:39.089Z,99288.08
2019-01-11T03:18:07.440Z,99287.63
2019-01-11T03:20:35.701Z,99290.58
2019-01-11T03:23:03.838Z,99292.01
2019-01-11T03:25:32.392Z,99293.45
2019-01-11T03:28:01.110Z,99291.06
2019-01-11T03:30:29.147Z,99288.02
2019-01-11T03:32:57.394Z,99286.48
2019-01-11T03:35:25.758Z,99291.12
2019-01-11T03:37:54.244Z,99288.52
2019-01-11T03:40:23.217Z,99294.28
2019-01-11T03:42:51.365Z,99286.54
2019-01-11T03:45:20.298Z,99286.31
2019-01-11T03:47:48.427Z,99284.19
2019-01-11T03:50:17.211Z,99287.98
2019-01-11T03:52:45.874Z,99289.00
2019-01-11T03:55:14.844Z,99289.78
2019-01-11T03:57:43.214Z,99282.10
2019-01-11T04:00:21.676Z,99285.09
2019-01-11T04:02:50.011Z,99288.45
2019-01-11T04:05:18.168Z,99285.24
2019-01-11T04:07:46.324Z,99289.48
2019-01-11T04:10:15.962Z,99281.34
2019-01-11T04:12:43.957Z,99283.13
2019-01-11T04:15:12.941Z,99289.25
2019-01-11T04:17:40.972Z,99284.69
2019-01-11T04:20:12.461Z,99286.23
2019-01-11T04:22:53.731Z,99289.72
2019-01-11T04:25:31.944Z,99290.63
2019-01-11T04:28:00.429Z,99289.84
2019-01-11T04:30:28.760Z,99288.33
2019-01-11T04:32:57.031Z,99286.78
2019-01-11T04:35:25.369Z,99286.86
2019-01-11T04:37:53.397Z,99291.49
2019-01-11T04:40:21.737Z,99298.64
2019-01-11T04:42:50.100Z,99298.49
2019-01-11T04:45:18.392Z,99297.30
2019-01-11T04:47:46.390Z,99291.46
2019-01-11T04:50:16.760Z,99298.83
2019-01-11T04:52:46.238Z,99293.76
2019-01-11T04:55:14.957Z,99298.28
2019-01-11T04:57:43.643Z,99297.98
2019-01-11T05:00:13.566Z,99300.36
2019-01-11T05:02:41.685Z,99292.87
2019-01-11T05:05:09.873Z,99300.02
2019-01-11T05:07:38.238Z,99299.41
2019-01-11T05:10:06.398Z,99293.36
2019-01-11T05:12:34.983Z,99295.08
2019-01-11T05:15:03.090Z,99295.00
2019-01-11T05:17:31.600Z,99290.56
2019-01-11T05:20:00.572Z,99297.88
2019-01-11T05:22:29.374Z,99296.57
2019-01-11T05:24:57.791Z,99297.80
2019-01-11T05:27:25.789Z,99297.95
2019-01-11T05:29:54.331Z,99296.20
2019-01-11T05:32:22.858Z,99296.12
2019-01-11T05:34:50.954Z,99295.96
2019-01-11T05:37:19.142Z,99296.52
2019-01-11T05:39:48.619Z,99298.82
2019-01-11T05:42:17.546Z,99290.00
2019-01-11T05:44:45.572Z,99287.34
2019-01-11T05:47:14.278Z,99288.77
2019-01-11T05:49:42.769Z,99287.73
2019-01-11T05:52:10.794Z,99288.63
2019-01-11T05:54:40.280Z,99290.14
2019-01-11T05:57:09.107Z,99285.98
2019-01-11T05:59:37.116Z,99292.54
2019-01-11T06:02:05.329Z,99296.20
2019-01-11T06:04:52.698Z,99292.73
2019-01-11T06:07:26.180Z,99295.06
2019-01-11T06:09:54.787Z,99298.55
2019-01-11T06:12:23.317Z,99301.05
2019-01-11T06:14:51.591Z,99306.53
2019-01-11T06:17:19.916Z,99303.20
2019-01-11T06:19:48.804Z,99309.92
2019-01-11T06:22:17.672Z,99304.67
2019-01-11T06:24:45.926Z,99311.56
2019-01-11T06:27:14.295Z,99307.67
2019-01-11T06:29:43.564Z,99309.47
2019-01-11T06:32:12.365Z,99301.47
2019-01-11T06:34:40.729Z,99290.89
2019-01-11T06:37:09.216Z,99299.69
2019-01-11T06:39:37.275Z,99294.35
2019-01-11T06:42:25.365Z,99295.27
2019-01-11T06:44:53.809Z,99300.36
2019-01-11T06:47:22.373Z,99298.02
2019-01-11T06:49:50.533Z,99300.98
2019-01-11T06:52:18.568Z,99302.17
2019-01-11T06:54:47.468Z,99300.58
2019-01-11T06:57:16.196Z,99301.47
2019-01-11T06:59:44.627Z,99298.00
2019-01-11T07:02:13.154Z,99300.55
2019-01-11T07:04:41.535Z,99298.42
2019-01-11T07:07:09.819Z,99291.23
2019-01-11T07:09:37.966Z,99294.13
2019-01-11T07:12:06.058Z,99299.58
2019-01-11T07:14:35.725Z,99294.34
2019-01-11T07:17:06.208Z,99294.52
2019-01-11T07:19:34.306Z,99289.34
2019-01-11T07:22:02.943Z,99295.61
2019-01-11T07:24:31.118Z,99289.50
2019-01-11T07:26:59.176Z,99289.81
2019-01-11T07:29:27.287Z,99298.25
2019-01-11T07:31:57.591Z,99300.23
2019-01-11T07:34:25.985Z,99296.94
2019-01-11T07:36:56.127Z,99296.08
2019-01-11T07:39:29.168Z,99293.41
2019-01-11T07:41:57.695Z,99298.43
2019-01-11T07:44:26.604Z,99297.33
2019-01-11T07:46:55.131Z,99294.42
2019-01-11T07:49:23.520Z,99295.64
2019-01-11T07:51:51.657Z,99297.94
2019-01-11T07:54:19.699Z,99300.05
2019-01-11T07:56:48.237Z,99301.41
2019-01-11T07:59:16.995Z,99301.09
2019-01-11T08:01:45.301Z,99297.24
2019-01-11T08:04:13.789Z,99291.16
2019-01-11T08:06:41.929Z,99304.00
2019-01-11T08:09:10.462Z,99306.78
2019-01-11T08:11:39.142Z,99306.67
2019-01-11T08:14:08.177Z,99304.34
2019-01-11T08:16:36.620Z,99305.62
2019-01-11T08:19:04.694Z,99299.02
2019-01-11T08:21:33.566Z,99304.08
2019-01-11T08:24:01.644Z,99308.51
2019-01-11T08:26:29.843Z,99311.34
2019-01-11T08:28:57.875Z,99308.63
2019-01-11T08:31:26.144Z,99305.81
2019-01-11T08:33:54.350Z,99311.12
2019-01-11T08:36:22.869Z,99307.66
2019-01-11T08:38:50.920Z,99304.44
2019-01-11T08:41:19.867Z,99305.27
2019-01-11T08:43:48.662Z,99306.55
2019-01-11T08:46:16.910Z,99302.50
2019-01-11T08:48:45.334Z,99310.93
2019-01-11T08:51:13.804Z,99316.56
2019-01-11T08:53:42.307Z,99313.14
2019-01-11T08:56:10.783Z,99312.78
2019-01-11T08:58:40.397Z,99310.38
2019-01-11T09:01:08.597Z,99308.61
2019-01-11T09:03:36.765Z,99314.97
2019-01-11T09:06:06.655Z,99303.30
2019-01-11T09:08:35.090Z,99308.45
2019-01-11T09:11:03.404Z,99305.25
2019-01-11T09:13:31.521Z,99308.84
2019-01-11T09:15:59.724Z,99311.53
2019-01-11T09:18:49.638Z,99313.13
2019-01-11T09:21:18.249Z,99309.28
2019-01-11T09:23:46.689Z,99315.13
2019-01-11T09:26:14.971Z,99312.03
2019-01-11T09:28:43.119Z,99313.35
2019-01-11T09:31:12.148Z,99312.31
2019-01-11T09:33:40.558Z,99308.02
2019-01-11T09:36:08.606Z,99303.20
2019-01-11T09:38:36.723Z,99298.16
2019-01-11T09:41:06.996Z,99306.40
2019-01-11T09:43:35.771Z,99298.32
2019-01-11T09:46:05.143Z,99302.70
2019-01-11T09:48:33.538Z,99295.20
2019-01-11T09:51:01.582Z,99290.78
2019-01-11T09:53:29.660Z,99290.97
2019-01-11T09:55:57.741Z,99294.10
2019-01-11T09:58:26.074Z,99294.05
2019-01-11T10:00:59.090Z,99294.53
2019-01-11T10:03:24.829Z,99288.95
2019-01-11T10:05:53.279Z,99307.36
2019-01-11T10:08:21.730Z,99309.27
2019-01-11T10:10:49.906Z,99311.22
2019-01-11T10:13:18.808Z,99301.30
2019-01-11T10:15:47.521Z,99304.65
2019-01-11T10:18:15.573Z,99303.21
2019-01-11T10:20:43.730Z,99302.07
2019-01-11T10:23:12.409Z,99298.91
2019-01-11T10:25:40.513Z,99306.30
2019-01-11T10:28:08.883Z,99300.48
2019-01-11T10:30:37.578Z,99300.52
2019-01-11T10:33:06.035Z,99296.70
2019-01-11T10:35:34.390Z,99303.58
2019-01-11T10:38:02.768Z,99300.91
2019-01-11T10:40:31.170Z,99297.17
2019-01-11T10:42:59.605Z,99294.68
2019-01-11T10:45:28.133Z,99292.48
2019-01-11T10:47:57.162Z,99290.27
2019-01-11T10:50:25.215Z,99287.27
2019-01-11T10:52:53.366Z,99279.30
2019-01-11T10:55:22.484Z,99281.86
2019-01-11T10:57:50.926Z,99274.42
2019-01-11T11:00:23.026Z,99266.67
2019-01-11T11:02:53.022Z,99265.52
2019-01-11T11:05:21.164Z,99260.58
2019-01-11T11:07:49.293Z,99269.26
2019-01-11T11:10:17.391Z,99276.75
2019-01-11T11:12:46.326Z,99272.80
2019-01-11T11:15:15.008Z,99263.62
2019-01-11T11:17:43.489Z,99257.52
2019-01-11T11:20:12.785Z,99248.26
2019-01-11T11:22:40.827Z,99249.08
2019-01-11T11:25:10.423Z,99243.83
2019-01-11T11:27:38.636Z,99228.52
2019-01-11T11:30:07.530Z,99231.89
2019-01-11T11:32:53.835Z,99231.52
2019-01-11T11:35:22.217Z,99228.14
2019-01-11T11:37:50.718Z,99229.53
2019-01-11T11:40:19.080Z,99227.70
2019-01-11T11:42:47.438Z,99224.14
2019-01-11T11:45:16.121Z,99223.45
2019-01-11T11:47:44.355Z,99222.78
2019-01-11T11:50:12.545Z,99219.59
2019-01-11T11:52:40.732Z,99212.00
2019-01-11T11:55:09.095Z,99206.69
2019-01-11T11:57:37.416Z,99204.56
2019-01-11T12:00:06.326Z,99198.45
2019-01-11T12:02:35.638Z,99198.48
2019-01-11T12:05:03.850Z,99198.89
2019-01-11T12:07:32.392Z,99203.48
2019-01-11T12:10:00.514Z,99197.09
2019-01-11T12:12:28.567Z,99188.66
2019-01-11T12:14:57.204Z,99191.93
2019-01-11T12:17:25.371Z,99188.12
2019-01-11T12:19:57.045Z,99185.52
2019-01-11T12:22:23.573Z,99186.91
2019-01-11T12:24:52.249Z,99180.70
2019-01-11T12:27:20.648Z,99173.07
2019-01-11T12:29:49.062Z,99168.23
2019-01-11T12:32:19.687Z,99168.71
2019-01-11T12:34:47.264Z,99162.19
2019-01-11T12:37:15.283Z,99183.09
2019-01-11T12:39:43.648Z,99176.91
2019-01-11T12:42:13.288Z,99181.04
2019-01-11T12:44:41.827Z,99171.59
2019-01-11T12:47:09.958Z,99173.45
2019-01-11T12:49:38.498Z,99178.95
2019-01-11T12:52:06.896Z,99172.41
2019-01-11T12:54:35.012Z,99169.80
2019-01-11T12:57:03.135Z,99162.09
2019-01-11T12:59:31.360Z,99156.13
2019-01-11T13:01:59.411Z,99151.43
2019-01-11T13:04:27.444Z,99150.69
2019-01-11T13:06:55.491Z,99147.82
2019-01-11T13:09:23.617Z,99145.37
2019-01-11T13:11:53.040Z,99138.52
2019-01-11T13:14:21.775Z,99139.59
2019-01-11T13:16:50.243Z,99137.35
2019-01-11T13:19:18.330Z,99151.14
2019-01-11T13:21:46.715Z,99139.74
2019-01-11T13:24:15.078Z,99152.22
2019-01-11T13:26:43.170Z,99143.91
2019-01-11T13:29:11.218Z,99146.34
2019-01-11T13:31:39.275Z,99142.83
2019-01-11T13:34:07.615Z,99142.77
2019-01-11T13:36:37.309Z,99148.52
2019-01-11T13:39:09.656Z,99142.61
2019-01-11T13:41:38.298Z,99139.25
2019-01-11T13:44:06.693Z,99136.88
2019-01-11T13:46:35.319Z,99141.59
2019-01-11T13:49:03.989Z,99142.41
2019-01-11T13:51:32.469Z,99137.73
2019-01-11T13:54:00.803Z,99139.31
2019-01-11T13:56:29.541Z,99133.41
2019-01-11T13:58:57.556Z,99139.57
2019-01-11T14:01:25.656Z,99139.23
2019-01-11T14:03:53.741Z,99135.30
2019-01-11T14:06:23.298Z,99135.17
2019-01-11T14:08:51.622Z,99137.64
2019-01-11T14:11:19.727Z,99130.61
2019-01-11T14:13:48.502Z,99130.25
2019-01-11T14:16:16.522Z,99130.23
2019-01-11T14:18:44.860Z,99137.46
2019-01-11T14:21:12.897Z,99138.61
2019-01-11T14:23:41.018Z,99140.04
2019-01-11T14:26:09.100Z,99139.49
2019-01-11T14:28:37.195Z,99143.83
2019-01-11T14:31:05.252Z,99151.12
2019-01-11T14:33:33.274Z,99151.94
2019-01-11T14:36:01.307Z,99147.81
2019-01-11T14:38:29.625Z,99143.00
2019-01-11T14:40:57.942Z,99142.78
2019-01-11T14:43:26.309Z,99152.47
2019-01-11T14:45:54.772Z,99155.69
2019-01-11T14:48:22.845Z,99151.13
2019-01-11T14:50:50.922Z,99140.47
2019-01-11T14:53:19.290Z,99145.77
2019-01-11T14:55:47.397Z,99153.16
2019-01-11T14:58:15.537Z,99155.26
2019-01-11T15:00:44.022Z,99154.94
2019-01-11T15:03:12.634Z,99153.09
2019-01-11T15:05:40.744Z,99157.36
2019-01-11T15:08:08.999Z,99154.93
2019-01-11T15:10:37.318Z,99150.92
2019-01-11T15:13:05.771Z,99148.27
2019-01-11T15:15:34.338Z,99147.07
2019-01-11T15:18:02.721Z,99144.30
2019-01-11T15:20:30.742Z,99142.13
2019-01-11T15:23:00.535Z,99133.52
2019-01-11T15:25:28.574Z,99135.61
2019-01-11T15:27:56.890Z,99139.98
2019-01-11T15:30:24.984Z,99145.48
2019-01-11T15:32:53.127Z,99146.52
2019-01-11T15:35:21.144Z,99146.53
2019-01-11T15:37:49.579Z,99147.98
2019-01-11T15:40:27.675Z,99144.86
2019-01-11T15:42:55.729Z,99143.50
2019-01-11T15:45:24.134Z,99142.27
2019-01-11T15:47:52.748Z,99146.70
2019-01-11T15:50:58.313Z,99141.78
2019-01-11T15:53:29.587Z,99145.27
2019-01-11T15:55:58.994Z,99144.11
2019-01-11T15:58:27.399Z,99140.20
2019-01-11T16:00:55.452Z,99143.09
2019-01-11T16:03:23.467Z,99144.72
2019-01-11T16:06:10.710Z,99144.88
2019-01-11T16:08:51.018Z,99139.97
2019-01-11T16:11:35.929Z,99139.28
2019-01-11T16:14:11.973Z,99146.70
2019-01-11T16:16:43.565Z,99146.13
2019-01-11T16:19:11.589Z,99141.39
2019-01-11T16:21:39.717Z,99139.34
2019-01-11T16:24:07.743Z,99131.76
2019-01-11T16:26:36.224Z,99132.91
2019-01-11T16:29:04.788Z,99128.70
2019-01-11T16:31:33.043Z,99131.44
2019-01-11T16:34:01.540Z,99132.46
2019-01-11T16:36:29.834Z,99132.09
2019-01-11T16:38:58.002Z,99124.47
2019-01-11T16:41:26.476Z,99123.53
2019-01-11T16:43:54.573Z,99127.95
2019-01-11T16:46:22.702Z,99124.94
2019-01-11T16:48:50.711Z,99119.91
2019-01-11T16:51:19.110Z,99121.89
2019-01-11T16:53:47.561Z,99128.81
2019-01-11T16:56:16.035Z,99128.22
2019-01-11T16:58:44.086Z,99126.52
2019-01-11T17:01:12.244Z,99127.51
2019-01-11T17:03:40.346Z,99133.00
2019-01-11T17:06:08.508Z,99130.51
2019-01-11T17:08:36.910Z,99133.02
2019-01-11T17:11:05.039Z,99133.66
2019-01-11T17:13:33.097Z,99131.22
2019-01-11T17:16:01.941Z,99133.64
2019-01-11T17:18:30.447Z,99137.78
2019-01-11T17:20:58.942Z,99136.23
2019-01-11T17:23:27.385Z,99137.50
2019-01-11T17:25:55.465Z,99135.35
2019-01-11T17:28:23.608Z,99133.34
2019-01-11T17:30:51.740Z,99133.39
2019-01-11T17:33:19.928Z,99131.55
2019-01-11T17:35:47.934Z,99136.77
2019-01-11T17:38:16.002Z,99129.69
2019-01-11T17:40:44.046Z,99124.09
2019-01-11T17:43:12.260Z,99122.45
2019-01-11T17:45:40.655Z,99128.46
2019-01-11T17:48:09.065Z,99127.38
2019-01-11T17:50:37.862Z,99127.05
2019-01-11T17:53:06.049Z,99131.06
2019-01-11T17:55:34.488Z,99137.30
2019-01-11T17:58:02.840Z,99138.93
2019-01-11T18:00:30.995Z,99134.98
2019-01-11T18:02:59.053Z,99136.34
2019-01-11T18:05:27.359Z,99138.97
2019-01-11T18:07:56.000Z,99136.44
2019-01-11T18:10:24.437Z,99137.34
2019-01-11T18:12:52.562Z,99134.88
2019-01-11T18:15:21.580Z,99137.20
2019-01-11T18:17:49.821Z,99130.14
2019-01-11T18:20:22.143Z,99136.93
2019-01-11T18:22:50.650Z,99137.88
2019-01-11T18:25:19.079Z,99135.52
2019-01-11T18:27:47.115Z,99129.38
2019-01-11T18:30:15.746Z,99129.97
2019-01-11T18:32:44.261Z,99127.90
2019-01-11T18:35:12.466Z,99130.35
2019-01-11T18:37:40.543Z,99131.94
2019-01-11T18:40:11.763Z,99122.34
2019-01-11T18:42:39.830Z,99126.59
2019-01-11T18:45:08.478Z,99126.12
2019-01-11T18:47:36.700Z,99132.29
2019-01-11T18:50:06.135Z,99132.09
2019-01-11T18:52:34.665Z,99130.00
2019-01-11T18:55:02.742Z,99135.55
2019-01-11T18:57:31.106Z,99128.62
2019-01-11T18:59:59.530Z,99134.54
2019-01-11T19:02:27.710Z,99133.06
2019-01-11T19:04:55.890Z,99137.26
2019-01-11T19:07:25.246Z,99133.33
2019-01-11T19:09:53.985Z,99130.34
2019-01-11T19:12:22.262Z,99126.64
2019-01-11T19:14:50.323Z,99130.02
2019-01-11T19:17:19.043Z,99127.61
2019-01-11T19:19:47.466Z,99129.19
2019-01-11T19:22:15.722Z,99128.56
2019-01-11T19:24:44.300Z,99127.84
2019-01-11T19:27:12.682Z,99133.02
2019-01-11T19:29:41.139Z,99134.11
2019-01-11T19:32:11.447Z,99145.28
2019-01-11T19:34:39.796Z,99138.55
2019-01-11T19:37:08.002Z,99135.17
2019-01-11T19:39:36.413Z,99144.52
2019-01-11T19:42:04.417Z,99138.02
2019-01-11T19:44:32.480Z,99145.30
2019-01-11T19:47:00.566Z,99140.34
2019-01-11T19:49:29.199Z,99142.39
2019-01-11T19:51:57.909Z,99144.05
2019-01-11T19:54:26.678Z,99149.61
2019-01-11T19:56:54.731Z,99138.56
2019-01-11T19:59:22.872Z,99133.43
2019-01-11T20:01:50.926Z,99133.05
2019-01-11T20:04:18.940Z,99132.00
2019-01-11T20:06:47.359Z,99132.95
2019-01-11T20:09:15.757Z,99131.98
2019-01-11T20:11:43.954Z,99127.55
2019-01-11T20:14:12.293Z,99130.34
2019-01-11T20:16:40.696Z,99133.73
2019-01-11T20:19:09.445Z,99135.56
2019-01-11T20:21:37.845Z,99131.94
2019-01-11T20:24:06.305Z,99133.30
2019-01-11T20:26:34.408Z,99137.98
2019-01-11T20:29:02.750Z,99135.42
2019-01-11T20:31:31.430Z,99139.09
2019-01-11T20:33:59.523Z,99131.05
2019-01-11T20:36:29.092Z,99133.05
2019-01-11T20:38:57.265Z,99133.31
2019-01-11T20:41:25.386Z,99132.87
2019-01-11T20:43:53.765Z,99134.39
2019-01-11T20:46:22.150Z,99133.78
2019-01-11T20:48:50.325Z,99142.05
2019-01-11T20:51:18.770Z,99137.92
2019-01-11T20:53:47.568Z,99143.83
2019-01-11T20:56:15.765Z,99136.95
2019-01-11T20:58:43.834Z,99142.99
2019-01-11T21:01:12.244Z,99132.22
2019-01-11T21:03:40.290Z,99135.22
2019-01-11T21:06:09.277Z,99136.05
2019-01-11T21:08:37.677Z,99133.39
2019-01-11T21:11:06.104Z,99128.70
2019-01-11T21:13:34.094Z,99132.66
2019-01-11T21:16:02.202Z,99135.98
2019-01-11T21:18:30.469Z,99131.12
2019-01-11T21:20:58.826Z,99137.05
2019-01-11T21:23:27.045Z,99133.16
2019-01-11T21:25:55.085Z,99132.08
2019-01-11T21:28:23.240Z,99132.09
2019-01-11T21:30:57.317Z,99138.38
2019-01-11T21:33:21.475Z,99144.55
2019-01-11T21:35:49.607Z,99138.64
2019-01-11T21:38:17.758Z,99140.87
2019-01-11T21:40:46.029Z,99143.42
2019-01-11T21:43:14.213Z,99143.70
2019-01-11T21:45:42.500Z,99141.64
2019-01-11T21:48:10.622Z,99142.41
2019-01-11T21:50:38.949Z,99151.21
2019-01-11T21:53:09.154Z,99146.91
2019-01-11T21:55:37.298Z,99149.47
2019-01-11T21:58:05.691Z,99151.17
2019-01-11T22:00:35.540Z,99146.75
2019-01-11T22:03:03.847Z,99141.48
2019-01-11T22:05:32.192Z,99145.99
2019-01-11T22:08:00.592Z,99147.44
2019-01-11T22:10:28.938Z,99146.61
2019-01-11T22:12:57.050Z,99147.00
2019-01-11T22:15:25.369Z,99147.30
2019-01-11T22:17:54.168Z,99141.72
2019-01-11T22:20:22.186Z,99147.26
2019-01-11T22:22:51.057Z,99156.55
2019-01-11T22:25:19.249Z,99153.47
2019-01-11T22:27:48.429Z,99152.08
2019-01-11T22:30:17.859Z,99145.87
2019-01-11T22:32:45.944Z,99152.99
2019-01-11T22:35:14.236Z,99146.81
2019-01-11T22:37:43.381Z,99144.81
2019-01-11T22:40:13.488Z,99134.13
2019-01-11T22:42:41.978Z,99136.66
2019-01-11T22:45:10.828Z,99138.96
2019-01-11T22:47:39.665Z,99137.13
2019-01-11T22:50:08.436Z,99129.74
2019-01-11T22:52:36.933Z,99135.08
2019-01-11T22:55:06.109Z,99142.95
2019-01-11T22:57:34.248Z,99134.69
2019-01-11T23:00:02.774Z,99136.03
2019-01-11T23:02:36.365Z,99132.28
2019-01-11T23:05:06.410Z,99135.05
2019-01-11T23:07:36.873Z,99127.95
2019-01-11T23:10:29.922Z,99125.16
2019-01-11T23:13:00.360Z,99132.08
2019-01-11T23:15:30.954Z,99134.21
2019-01-11T23:18:04.247Z,99127.80
2019-01-11T23:20:32.678Z,99126.56
2019-01-11T23:23:01.806Z,99135.48
2019-01-11T23:25:29.902Z,99125.98
2019-01-11T23:27:59.226Z,99141.25
2019-01-11T23:30:29.709Z,99135.59
2019-01-11T23:33:00.130Z,99144.22
2019-01-11T23:35:28.546Z,99145.56
2019-01-11T23:37:56.990Z,99145.50
2019-01-11T23:40:33.342Z,99151.80
2019-01-11T23:43:02.534Z,99148.28
2019-01-11T23:45:30.939Z,99147.81
2019-01-11T23:47:59.226Z,99143.02
2019-01-11T23:50:27.693Z,99146.61
2019-01-11T23:52:55.708Z,99153.10
2019-01-11T23:55:24.734Z,99150.85
2019-01-11T23:57:53.153Z,99148.33
